createdAt,value
2023-03-21T00:01:53.790Z,5.72
2023-03-21T00:04:24.220Z,5.72
2023-03-21T00:06:53.184Z,5.71
2023-03-21T00:09:21.564Z,5.72
2023-03-21T00:11:52.248Z,5.72
2023-03-21T00:14:21.271Z,5.71
2023-03-21T00:16:51.109Z,5.69
2023-03-21T00:19:29.850Z,5.73
2023-03-21T00:22:07.882Z,5.71
2023-03-21T00:24:37.435Z,5.70
2023-03-21T00:29:57.446Z,5.71
2023-03-21T00:32:33.957Z,5.70
2023-03-21T00:35:34.520Z,5.67
2023-03-21T00:37:56.221Z,5.67
2023-03-21T00:40:29.349Z,5.69
2023-03-21T00:42:59.582Z,5.72
2023-03-21T00:45:28.550Z,5.76
2023-03-21T00:47:57.062Z,5.77
2023-03-21T00:50:25.679Z,5.79
2023-03-21T00:52:54.213Z,5.83
2023-03-21T00:55:23.852Z,5.87
2023-03-21T00:58:01.134Z,5.87
2023-03-21T01:00:30.570Z,5.84
2023-03-21T01:03:17.634Z,5.83
2023-03-21T01:06:04.890Z,5.85
2023-03-21T01:08:48.677Z,5.84
2023-03-21T01:11:21.448Z,5.84
2023-03-21T01:14:21.035Z,5.85
2023-03-21T01:16:37.810Z,5.86
2023-03-21T01:19:09.422Z,5.85
2023-03-21T01:21:43.504Z,5.84
2023-03-21T01:24:11.855Z,5.82
2023-03-21T01:26:40.140Z,5.81
2023-03-21T01:29:08.520Z,5.75
2023-03-21T01:31:36.735Z,5.65
2023-03-21T01:34:05.731Z,5.57
2023-03-21T01:36:34.007Z,5.54
2023-03-21T01:39:06.809Z,5.52
2023-03-21T01:41:42.892Z,5.53
2023-03-21T01:44:31.064Z,5.53
2023-03-21T01:47:15.434Z,5.56
2023-03-21T01:50:02.688Z,5.59
2023-03-21T01:52:47.103Z,5.58
2023-03-21T01:55:18.076Z,5.55
2023-03-21T01:58:05.211Z,5.56
2023-03-21T02:00:43.852Z,5.59
2023-03-21T02:03:34.980Z,5.61
2023-03-21T02:06:30.518Z,5.63
2023-03-21T02:09:02.718Z,5.62
2023-03-21T02:11:32.736Z,5.60
2023-03-21T02:14:06.745Z,5.59
2023-03-21T02:16:52.962Z,5.60
2023-03-21T02:19:35.663Z,5.59
2023-03-21T02:22:29.935Z,5.53
2023-03-21T02:25:21.329Z,5.51
2023-03-21T02:28:17.658Z,5.46
2023-03-21T02:31:05.058Z,5.41
2023-03-21T02:33:40.555Z,5.37
2023-03-21T02:36:18.007Z,5.35
2023-03-21T02:38:47.775Z,5.33
2023-03-21T02:41:21.293Z,5.31
2023-03-21T02:43:56.559Z,5.24
2023-03-21T02:46:45.397Z,5.17
2023-03-21T02:49:22.192Z,5.11
2023-03-21T02:51:50.681Z,5.04
2023-03-21T02:54:34.980Z,4.99
2023-03-21T02:57:07.625Z,4.92
2023-03-21T02:59:44.364Z,4.88
2023-03-21T03:02:17.286Z,4.86
2023-03-21T03:04:48.106Z,4.84
2023-03-21T03:07:22.017Z,4.82
2023-03-21T03:10:00.942Z,4.79
2023-03-21T03:12:33.931Z,4.78
2023-03-21T03:15:18.106Z,4.77
2023-03-21T03:17:51.181Z,4.76
2023-03-21T03:20:28.451Z,4.76
2023-03-21T03:23:06.145Z,4.75
2023-03-21T03:25:49.162Z,4.75
2023-03-21T03:28:18.898Z,4.74
2023-03-21T03:31:04.942Z,4.75
2023-03-21T03:33:38.210Z,4.74
2023-03-21T03:36:07.890Z,4.71
2023-03-21T03:38:37.490Z,4.67
2023-03-21T03:41:15.893Z,4.64
2023-03-21T03:43:53.029Z,4.61
2023-03-21T03:46:29.270Z,4.60
2023-03-21T03:49:00.905Z,4.59
2023-03-21T03:51:30.408Z,4.59
2023-03-21T03:54:24.270Z,4.58
2023-03-21T03:56:52.569Z,4.58
2023-03-21T03:59:25.268Z,4.57
2023-03-21T04:02:12.550Z,4.57
2023-03-21T04:04:42.026Z,4.58
2023-03-21T04:07:11.268Z,4.57
2023-03-21T04:09:45.042Z,4.58
2023-03-21T04:12:18.468Z,4.58
2023-03-21T04:15:10.960Z,4.58
2023-03-21T04:17:42.768Z,4.58
2023-03-21T04:20:18.474Z,4.59
2023-03-21T04:22:52.660Z,4.60
2023-03-21T04:25:32.345Z,4.62
2023-03-21T04:28:02.100Z,4.62
2023-03-21T04:30:36.267Z,4.63
2023-03-21T04:33:16.775Z,4.65
2023-03-21T04:35:59.545Z,4.68
2023-03-21T04:38:31.630Z,4.72
2023-03-21T04:41:03.647Z,4.76
2023-03-21T04:43:38.645Z,4.80
2023-03-21T04:46:07.419Z,4.84
2023-03-21T04:48:35.739Z,4.87
2023-03-21T04:51:07.072Z,4.90
2023-03-21T04:53:35.564Z,4.93
2023-03-21T04:56:04.962Z,4.97
2023-03-21T04:58:33.649Z,5.02
2023-03-21T05:01:02.720Z,5.10
2023-03-21T05:03:40.331Z,5.17
2023-03-21T05:06:09.141Z,5.19
2023-03-21T05:08:37.255Z,5.20
2023-03-21T05:11:05.703Z,5.21
2023-03-21T05:13:35.326Z,5.26
2023-03-21T05:16:03.599Z,5.32
2023-03-21T05:18:34.904Z,5.40
2023-03-21T05:21:10.537Z,5.45
2023-03-21T05:23:42.561Z,5.49
2023-03-21T05:26:10.940Z,5.54
2023-03-21T05:28:45.425Z,5.57
2023-03-21T05:31:16.966Z,5.59
2023-03-21T05:33:46.338Z,5.60
2023-03-21T05:36:25.244Z,5.62
2023-03-21T05:38:53.637Z,5.68
2023-03-21T05:41:22.745Z,5.80
2023-03-21T05:43:50.843Z,5.92
2023-03-21T05:46:19.153Z,6.05
2023-03-21T05:48:48.909Z,6.15
2023-03-21T05:51:19.338Z,6.23
2023-03-21T05:53:47.624Z,6.29
2023-03-21T05:56:18.566Z,6.39
2023-03-21T05:58:53.368Z,6.52
2023-03-21T06:01:23.729Z,6.64
2023-03-21T06:03:56.935Z,6.76
2023-03-21T06:06:28.238Z,6.88
2023-03-21T06:08:57.676Z,6.99
2023-03-21T06:11:27.412Z,7.09
2023-03-21T06:14:17.231Z,7.23
2023-03-21T06:16:46.573Z,7.60
2023-03-21T06:19:14.850Z,8.38
2023-03-21T06:22:06.271Z,9.27
2023-03-21T06:24:36.494Z,9.98
2023-03-21T06:27:05.122Z,10.74
2023-03-21T06:29:44.098Z,11.63
2023-03-21T06:32:12.835Z,12.78
2023-03-21T06:34:41.787Z,14.12
2023-03-21T06:37:18.770Z,15.60
2023-03-21T06:39:47.460Z,16.91
2023-03-21T06:42:16.076Z,18.10
2023-03-21T06:44:44.807Z,19.15
2023-03-21T06:47:16.023Z,19.99
2023-03-21T06:49:45.946Z,20.63
2023-03-21T06:52:15.872Z,21.21
2023-03-21T06:54:45.442Z,21.79
2023-03-21T06:57:22.236Z,22.36
2023-03-21T06:59:51.172Z,22.86
2023-03-21T07:02:21.974Z,23.28
2023-03-21T07:05:04.862Z,23.62
2023-03-21T07:07:33.059Z,23.73
2023-03-21T07:10:10.801Z,23.64
2023-03-21T07:12:46.489Z,23.73
2023-03-21T07:15:22.572Z,23.94
2023-03-21T07:17:51.232Z,23.82
2023-03-21T07:20:19.747Z,23.57
2023-03-21T07:22:48.270Z,23.15
2023-03-21T07:25:20.842Z,22.73
2023-03-21T07:27:51.328Z,22.34
2023-03-21T07:30:19.445Z,21.59
2023-03-21T07:32:47.878Z,19.98
2023-03-21T07:35:17.034Z,18.40
2023-03-21T07:37:49.061Z,17.05
2023-03-21T07:40:18.076Z,15.94
2023-03-21T07:42:46.195Z,14.95
2023-03-21T07:45:21.989Z,13.91
2023-03-21T07:47:50.500Z,13.02
2023-03-21T07:50:19.371Z,12.45
2023-03-21T07:52:50.050Z,12.09
2023-03-21T07:55:18.397Z,11.86
2023-03-21T07:57:46.968Z,11.68
2023-03-21T08:00:23.333Z,11.58
2023-03-21T08:02:58.559Z,11.59
2023-03-21T08:05:37.254Z,11.64
2023-03-21T08:08:06.423Z,11.66
2023-03-21T08:10:34.682Z,11.63
2023-03-21T08:13:08.248Z,11.65
2023-03-21T08:15:38.051Z,11.62
2023-03-21T08:18:07.033Z,11.57
2023-03-21T08:20:37.696Z,11.61
2023-03-21T08:23:05.900Z,11.66
2023-03-21T08:25:33.883Z,11.69
2023-03-21T08:28:01.925Z,11.72
2023-03-21T08:30:30.336Z,11.72
2023-03-21T08:33:01.224Z,11.72
2023-03-21T08:35:32.263Z,11.81
2023-03-21T08:38:02.958Z,11.91
2023-03-21T08:40:32.614Z,12.03
2023-03-21T08:43:00.943Z,12.16
2023-03-21T08:45:30.005Z,12.28
2023-03-21T08:48:02.672Z,12.41
2023-03-21T08:50:31.941Z,12.52
2023-03-21T08:53:00.321Z,12.63
2023-03-21T08:55:28.525Z,12.69
2023-03-21T08:58:09.302Z,12.74
2023-03-21T09:00:39.400Z,12.84
2023-03-21T09:03:07.846Z,12.94
2023-03-21T09:05:37.094Z,13.01
2023-03-21T09:08:05.632Z,13.09
2023-03-21T09:10:34.094Z,13.19
2023-03-21T09:13:02.734Z,13.29
2023-03-21T09:15:31.769Z,13.38
2023-03-21T09:18:13.663Z,13.46
2023-03-21T09:20:47.810Z,13.50
2023-03-21T09:23:15.964Z,13.53
2023-03-21T09:25:46.495Z,13.56
2023-03-21T09:28:14.454Z,13.62
2023-03-21T09:30:43.046Z,13.68
2023-03-21T09:33:19.879Z,13.72
2023-03-21T09:35:50.752Z,13.75
2023-03-21T09:38:20.100Z,13.80
2023-03-21T09:40:57.587Z,13.83
2023-03-21T09:43:47.925Z,13.85
2023-03-21T09:46:18.777Z,13.91
2023-03-21T09:48:57.253Z,13.99
2023-03-21T09:51:33.758Z,14.08
2023-03-21T09:54:03.994Z,14.16
2023-03-21T09:56:32.205Z,14.22
2023-03-21T09:59:00.705Z,14.28
2023-03-21T10:01:33.220Z,14.33
2023-03-21T10:04:06.049Z,14.35
2023-03-21T10:06:39.466Z,14.42
2023-03-21T10:09:09.786Z,14.50
2023-03-21T10:11:41.694Z,14.58
2023-03-21T10:14:15.930Z,14.65
2023-03-21T10:16:45.030Z,14.71
2023-03-21T10:19:14.169Z,14.78
2023-03-21T10:22:00.809Z,14.84
2023-03-21T10:24:31.741Z,14.88
2023-03-21T10:27:00.124Z,14.89
2023-03-21T10:29:29.244Z,14.92
2023-03-21T10:31:57.299Z,14.96
2023-03-21T10:34:52.536Z,15.01
2023-03-21T10:37:20.504Z,15.04
2023-03-21T10:40:06.334Z,15.09
2023-03-21T10:42:37.167Z,15.11
2023-03-21T10:45:05.358Z,15.13
2023-03-21T10:47:35.219Z,15.15
2023-03-21T10:50:08.184Z,15.15
2023-03-21T10:52:49.749Z,15.17
2023-03-21T10:55:17.871Z,15.19
2023-03-21T10:57:48.951Z,15.20
2023-03-21T11:00:24.034Z,15.20
2023-03-21T11:03:05.680Z,15.23
2023-03-21T11:05:37.810Z,15.27
2023-03-21T11:08:07.736Z,15.29
2023-03-21T11:10:38.470Z,15.32
2023-03-21T11:13:17.877Z,15.35
2023-03-21T11:15:58.409Z,15.39
2023-03-21T11:18:31.630Z,15.40
2023-03-21T11:21:04.160Z,15.40
2023-03-21T11:26:36.791Z,15.42
2023-03-21T11:29:31.637Z,15.43
2023-03-21T11:32:02.812Z,15.46
2023-03-21T11:34:38.699Z,15.47
2023-03-21T11:37:16.960Z,15.50
2023-03-21T11:39:45.753Z,15.54
2023-03-21T11:42:31.513Z,15.55
2023-03-21T11:45:04.990Z,15.61
2023-03-21T11:47:33.161Z,15.66
2023-03-21T11:50:05.272Z,15.70
2023-03-21T11:52:39.251Z,15.75
2023-03-21T11:55:07.763Z,15.75
2023-03-21T11:57:56.254Z,15.76
2023-03-21T12:00:26.957Z,15.88
2023-03-21T12:03:09.563Z,15.95
2023-03-21T12:05:39.603Z,15.99
2023-03-21T12:08:17.847Z,16.02
2023-03-21T12:11:13.118Z,16.03
2023-03-21T12:13:44.438Z,16.00
2023-03-21T12:16:30.998Z,16.04
2023-03-21T12:19:09.552Z,16.05
2023-03-21T12:21:44.285Z,16.06
2023-03-21T12:24:14.581Z,16.05
2023-03-21T12:26:54.716Z,16.05
2023-03-21T12:29:30.404Z,16.04
2023-03-21T12:32:14.379Z,16.03
2023-03-21T12:34:42.804Z,16.03
2023-03-21T12:37:29.717Z,16.05
2023-03-21T12:40:09.656Z,16.07
2023-03-21T12:42:50.452Z,16.09
2023-03-21T12:45:20.325Z,16.10
2023-03-21T12:47:51.666Z,16.10
2023-03-21T12:50:24.838Z,16.15
2023-03-21T12:52:58.997Z,16.22
2023-03-21T12:55:28.413Z,16.27
2023-03-21T12:57:57.774Z,16.33
2023-03-21T13:00:28.996Z,16.39
2023-03-21T13:03:04.099Z,16.44
2023-03-21T13:05:36.042Z,16.50
2023-03-21T13:08:04.359Z,16.57
2023-03-21T13:10:32.557Z,16.61
2023-03-21T13:13:07.819Z,16.62
2023-03-21T13:15:48.518Z,16.59
2023-03-21T13:18:23.271Z,16.57
2023-03-21T13:20:55.431Z,16.51
2023-03-21T13:23:24.706Z,16.46
2023-03-21T13:25:53.338Z,16.42
2023-03-21T13:28:28.914Z,16.39
2023-03-21T13:31:16.253Z,16.36
2023-03-21T13:33:48.585Z,16.32
2023-03-21T13:36:18.722Z,16.29
2023-03-21T13:38:51.228Z,16.24
2023-03-21T13:41:20.747Z,16.13
2023-03-21T13:43:55.927Z,16.09
2023-03-21T13:46:34.107Z,16.07
2023-03-21T13:49:10.754Z,16.02
2023-03-21T13:51:52.213Z,15.98
2023-03-21T13:54:29.815Z,15.96
2023-03-21T13:57:00.979Z,15.96
2023-03-21T13:59:36.505Z,15.99
2023-03-21T14:02:24.755Z,16.03
2023-03-21T14:05:05.431Z,16.07
2023-03-21T14:07:41.241Z,16.10
2023-03-21T14:10:20.504Z,16.11
2023-03-21T14:12:48.999Z,16.11
2023-03-21T14:15:20.003Z,16.10
2023-03-21T14:17:51.285Z,16.09
2023-03-21T14:20:23.933Z,16.05
2023-03-21T14:22:52.394Z,16.01
2023-03-21T14:25:21.075Z,15.99
2023-03-21T14:27:50.437Z,15.96
2023-03-21T14:30:23.035Z,15.92
2023-03-21T14:32:51.238Z,15.90
2023-03-21T14:35:19.342Z,15.90
2023-03-21T14:37:48.064Z,15.89
2023-03-21T14:40:21.675Z,15.85
2023-03-21T14:42:50.417Z,15.80
2023-03-21T14:45:28.158Z,15.77
2023-03-21T14:47:56.665Z,15.76
2023-03-21T14:50:28.522Z,15.74
2023-03-21T14:52:56.544Z,15.71
2023-03-21T14:55:24.741Z,15.71
2023-03-21T14:57:54.788Z,15.71
2023-03-21T15:00:24.601Z,15.71
2023-03-21T15:02:57.757Z,15.70
2023-03-21T15:05:34.626Z,15.68
2023-03-21T15:08:03.174Z,15.66
2023-03-21T15:10:32.269Z,15.66
2023-03-21T15:13:20.690Z,15.64
2023-03-21T15:15:50.061Z,15.61
2023-03-21T15:18:20.971Z,15.56
2023-03-21T15:20:54.978Z,15.50
2023-03-21T15:23:38.385Z,15.44
2023-03-21T15:26:06.445Z,15.37
2023-03-21T15:28:34.733Z,15.31
2023-03-21T15:31:02.844Z,15.24
2023-03-21T15:33:32.365Z,15.18
2023-03-21T15:36:00.701Z,15.10
2023-03-21T15:38:45.308Z,15.00
2023-03-21T15:41:19.923Z,14.86
2023-03-21T15:43:48.489Z,14.75
2023-03-21T15:46:19.163Z,14.64
2023-03-21T15:48:47.210Z,14.52
2023-03-21T15:51:21.753Z,14.42
2023-03-21T15:53:51.629Z,14.35
2023-03-21T15:56:21.622Z,14.26
2023-03-21T15:58:51.849Z,14.19
2023-03-21T16:01:21.011Z,14.12
2023-03-21T16:03:55.160Z,14.05
2023-03-21T16:06:29.959Z,13.99
2023-03-21T16:09:04.073Z,13.91
2023-03-21T16:11:39.967Z,13.82
2023-03-21T16:14:08.339Z,13.74
2023-03-21T16:16:36.271Z,13.67
2023-03-21T16:19:09.567Z,13.62
2023-03-21T16:21:40.333Z,13.54
2023-03-21T16:24:10.444Z,13.45
2023-03-21T16:26:42.731Z,13.35
2023-03-21T16:29:12.157Z,13.23
2023-03-21T16:31:40.550Z,13.13
2023-03-21T16:34:08.809Z,13.04
2023-03-21T16:36:38.257Z,12.95
2023-03-21T16:39:32.342Z,12.88
2023-03-21T16:42:00.767Z,12.81
2023-03-21T16:44:33.946Z,12.76
2023-03-21T16:47:02.609Z,12.73
2023-03-21T16:49:31.172Z,12.71
2023-03-21T16:52:01.485Z,12.69
2023-03-21T16:54:29.914Z,12.67
2023-03-21T16:56:59.598Z,12.64
2023-03-21T16:59:27.556Z,12.63
2023-03-21T17:01:56.061Z,12.61
2023-03-21T17:04:24.981Z,12.57
2023-03-21T17:06:54.467Z,12.44
2023-03-21T17:09:23.360Z,12.33
2023-03-21T17:11:52.689Z,12.30
2023-03-21T17:14:23.222Z,12.29
2023-03-21T17:16:51.282Z,12.27
2023-03-21T17:19:24.058Z,12.25
2023-03-21T17:21:52.245Z,12.27
2023-03-21T17:24:20.198Z,12.32
2023-03-21T17:26:49.068Z,12.36
2023-03-21T17:29:17.127Z,12.39
2023-03-21T17:31:47.534Z,12.44
2023-03-21T17:34:15.974Z,12.49
2023-03-21T17:36:44.681Z,12.51
2023-03-21T17:39:20.178Z,12.50
2023-03-21T17:41:48.931Z,12.52
2023-03-21T17:44:16.961Z,12.53
2023-03-21T17:46:45.117Z,12.55
2023-03-21T17:49:14.940Z,12.56
2023-03-21T17:51:43.480Z,12.56
2023-03-21T17:54:11.781Z,12.56
2023-03-21T17:56:42.623Z,12.57
2023-03-21T17:59:12.101Z,12.60
2023-03-21T18:01:40.790Z,12.62
2023-03-21T18:04:08.970Z,12.62
2023-03-21T18:06:37.961Z,12.61
2023-03-21T18:09:11.734Z,12.59
2023-03-21T18:11:40.316Z,12.58
2023-03-21T18:14:17.199Z,12.56
2023-03-21T18:16:47.065Z,12.55
2023-03-21T18:19:15.710Z,12.55
2023-03-21T18:21:47.662Z,12.55
2023-03-21T18:24:16.010Z,12.56
2023-03-21T18:26:44.318Z,12.59
2023-03-21T18:32:06.803Z,12.65
2023-03-21T18:34:36.847Z,12.66
2023-03-21T18:37:08.147Z,12.67
2023-03-21T18:39:36.502Z,12.68
2023-03-21T18:42:05.372Z,12.69
2023-03-21T18:44:38.869Z,12.70
2023-03-21T18:47:07.629Z,12.70
2023-03-21T18:52:29.277Z,12.70
2023-03-21T18:54:58.291Z,12.70
2023-03-21T18:57:41.706Z,12.70
2023-03-21T19:00:17.363Z,12.70
2023-03-21T19:02:48.083Z,12.71
2023-03-21T19:05:22.745Z,12.71
2023-03-21T19:07:51.737Z,12.70
2023-03-21T19:10:20.901Z,12.69
2023-03-21T19:12:52.585Z,12.68
2023-03-21T19:15:22.108Z,12.67
2023-03-21T19:20:45.468Z,12.64
2023-03-21T19:23:16.270Z,12.63
2023-03-21T19:25:45.502Z,12.61
2023-03-21T19:28:15.267Z,12.59
2023-03-21T19:30:49.816Z,12.56
2023-03-21T19:33:20.260Z,12.55
2023-03-21T19:35:49.297Z,12.53
2023-03-21T19:38:17.595Z,12.51
2023-03-21T19:40:46.486Z,12.48
2023-03-21T19:43:32.215Z,12.45
2023-03-21T19:46:03.078Z,12.43
2023-03-21T19:48:32.203Z,12.39
2023-03-21T19:51:26.942Z,12.38
2023-03-21T19:53:53.984Z,12.35
2023-03-21T19:56:26.238Z,12.33
2023-03-21T19:58:55.657Z,12.31
2023-03-21T20:01:24.488Z,12.30
2023-03-21T20:03:53.217Z,12.29
2023-03-21T20:06:23.535Z,12.28
2023-03-21T20:11:40.754Z,12.25
2023-03-21T20:14:09.375Z,12.24
2023-03-21T20:16:37.683Z,12.23
2023-03-21T20:19:09.102Z,12.22
2023-03-21T20:21:48.573Z,12.20
2023-03-21T20:24:20.338Z,12.18
2023-03-21T20:26:49.689Z,12.16
2023-03-21T20:32:06.876Z,12.12
2023-03-21T20:34:36.853Z,12.10
2023-03-21T20:37:08.219Z,12.10
2023-03-21T20:39:36.662Z,12.08
2023-03-21T20:42:05.385Z,12.06
2023-03-21T20:44:56.041Z,12.05
2023-03-21T20:47:22.500Z,12.04
2023-03-21T20:49:52.259Z,12.04
2023-03-21T20:55:09.306Z,12.05
2023-03-21T20:57:40.805Z,12.04
2023-03-21T21:00:13.735Z,12.04
2023-03-21T21:02:44.792Z,12.04
2023-03-21T21:05:32.961Z,12.04
2023-03-21T21:08:02.970Z,12.03
2023-03-21T21:10:33.488Z,12.04
2023-03-21T21:13:02.896Z,12.03
2023-03-21T21:15:37.580Z,12.03
2023-03-21T21:18:08.528Z,12.03
2023-03-21T21:20:37.204Z,12.03
2023-03-21T21:23:09.534Z,12.02
2023-03-21T21:25:40.188Z,12.00
2023-03-21T21:28:09.716Z,11.99
2023-03-21T21:30:42.799Z,11.98
2023-03-21T21:33:14.591Z,11.96
2023-03-21T21:35:48.144Z,11.95
2023-03-21T21:38:17.882Z,11.94
2023-03-21T21:40:49.852Z,11.93
2023-03-21T21:43:19.698Z,11.93
2023-03-21T21:45:48.642Z,11.93
2023-03-21T21:48:20.986Z,11.93
2023-03-21T21:50:49.648Z,11.93
2023-03-21T21:53:19.211Z,11.93
2023-03-21T21:55:48.824Z,11.92
2023-03-21T21:58:18.781Z,11.90
2023-03-21T22:00:47.069Z,11.90
2023-03-21T22:03:15.405Z,11.90
2023-03-21T22:05:47.906Z,11.89
2023-03-21T22:08:19.447Z,11.89
2023-03-21T22:10:47.535Z,11.88
2023-03-21T22:13:15.754Z,11.88
2023-03-21T22:15:46.038Z,11.87
2023-03-21T22:18:16.193Z,11.86
2023-03-21T22:20:44.506Z,11.86
2023-03-21T22:23:12.602Z,11.85
2023-03-21T22:25:40.635Z,11.85
2023-03-21T22:28:08.698Z,11.85
2023-03-21T22:30:37.996Z,11.85
2023-03-21T22:33:09.968Z,11.84
2023-03-21T22:35:42.275Z,11.83
2023-03-21T22:38:12.439Z,11.82
2023-03-21T22:40:40.636Z,11.82
2023-03-21T22:43:10.662Z,11.83
2023-03-21T22:45:39.103Z,11.83
2023-03-21T22:48:13.557Z,11.83
2023-03-21T22:50:42.207Z,11.82
2023-03-21T22:53:10.312Z,11.80
2023-03-21T22:55:38.649Z,11.79
2023-03-21T22:58:09.214Z,11.76
2023-03-21T23:00:37.842Z,11.74
2023-03-21T23:03:06.514Z,11.72
2023-03-21T23:05:39.001Z,11.70
2023-03-21T23:08:07.821Z,11.68
2023-03-21T23:10:38.393Z,11.64
2023-03-21T23:13:06.879Z,11.60
2023-03-21T23:15:40.796Z,11.57
2023-03-21T23:18:10.304Z,11.54
2023-03-21T23:20:38.589Z,11.51
2023-03-21T23:23:08.038Z,11.49
2023-03-21T23:25:39.545Z,11.45
2023-03-21T23:28:08.917Z,11.43
2023-03-21T23:30:37.744Z,11.41
2023-03-21T23:33:06.058Z,11.39
2023-03-21T23:35:35.638Z,11.38
2023-03-21T23:38:04.347Z,11.36
2023-03-21T23:40:32.502Z,11.33
2023-03-21T23:43:01.089Z,11.31
2023-03-21T23:45:29.501Z,11.31
2023-03-21T23:47:59.125Z,11.31
2023-03-21T23:50:27.420Z,11.31
2023-03-21T23:52:58.476Z,11.30
2023-03-21T23:55:27.440Z,11.30
2023-03-21T23:57:59.304Z,11.29
